createdAt,value
2019-02-15T00:00:56.570Z,102455.83
2019-02-15T00:03:26.031Z,102458.52
2019-02-15T00:05:55.679Z,102459.04
2019-02-15T00:08:25.263Z,102459.91
2019-02-15T00:10:54.859Z,102457.53
2019-02-15T00:13:23.947Z,102466.66
2019-02-15T00:15:53.445Z,102454.58
2019-02-15T00:18:51.218Z,102449.96
2019-02-15T00:21:21.842Z,102446.98
2019-02-15T00:23:51.339Z,102444.94
2019-02-15T00:26:20.555Z,102443.98
2019-02-15T00:28:50.044Z,102443.98
2019-02-15T00:31:19.684Z,102441.09
2019-02-15T00:33:49.990Z,102439.69
2019-02-15T00:36:19.481Z,102431.69
2019-02-15T00:38:48.794Z,102433.55
2019-02-15T00:41:18.396Z,102431.45
2019-02-15T00:43:47.802Z,102433.59
2019-02-15T00:46:34.518Z,102429.17
2019-02-15T00:49:04.833Z,102433.34
2019-02-15T00:51:42.626Z,102430.99
2019-02-15T00:54:16.667Z,102431.84
2019-02-15T00:56:47.637Z,102431.89
2019-02-15T00:59:20.505Z,102425.39
2019-02-15T01:01:54.167Z,102415.31
2019-02-15T01:04:34.699Z,102416.95
2019-02-15T01:07:21.850Z,102420.39
2019-02-15T01:09:52.869Z,102418.48
2019-02-15T01:12:23.400Z,102418.67
2019-02-15T01:14:53.044Z,102412.66
2019-02-15T01:17:22.384Z,102412.34
2019-02-15T01:19:51.737Z,102414.95
2019-02-15T01:22:21.339Z,102410.81
2019-02-15T01:24:51.233Z,102414.18
2019-02-15T01:27:27.741Z,102408.45
2019-02-15T01:30:01.440Z,102397.77
2019-02-15T01:32:41.531Z,102407.30
2019-02-15T01:35:27.807Z,102408.91
2019-02-15T01:37:58.473Z,102411.02
2019-02-15T01:40:32.115Z,102413.73
2019-02-15T01:43:07.377Z,102401.36
2019-02-15T01:45:38.375Z,102398.88
2019-02-15T01:49:01.659Z,102399.60
2019-02-15T01:51:31.751Z,102403.37
2019-02-15T01:54:00.977Z,102391.53
2019-02-15T01:56:30.812Z,102393.38
2019-02-15T01:59:00.273Z,102390.87
2019-02-15T02:01:30.006Z,102368.98
2019-02-15T02:04:01.048Z,102388.87
2019-02-15T02:06:30.442Z,102380.92
2019-02-15T02:09:01.227Z,102388.38
2019-02-15T02:11:31.945Z,102388.67
2019-02-15T02:14:01.605Z,102384.27
2019-02-15T02:16:31.419Z,102377.27
2019-02-15T02:19:00.822Z,102369.80
2019-02-15T02:21:30.717Z,102372.31
2019-02-15T02:24:00.361Z,102375.87
2019-02-15T02:26:31.330Z,102369.73
2019-02-15T02:29:01.551Z,102360.39
2019-02-15T02:31:31.131Z,102365.53
2019-02-15T02:34:01.184Z,102364.17
2019-02-15T02:36:47.882Z,102365.22
2019-02-15T02:39:17.878Z,102357.09
2019-02-15T02:41:47.851Z,102356.19
2019-02-15T02:44:17.896Z,102361.69
2019-02-15T02:46:50.165Z,102359.40
2019-02-15T02:49:20.001Z,102351.80
2019-02-15T02:51:49.501Z,102349.95
2019-02-15T02:54:18.766Z,102349.32
2019-02-15T02:56:48.569Z,102350.12
2019-02-15T02:59:18.398Z,102343.27
2019-02-15T03:01:48.644Z,102343.40
2019-02-15T03:04:19.282Z,102344.90
2019-02-15T03:06:49.255Z,102341.78
2019-02-15T03:09:19.182Z,102348.19
2019-02-15T03:11:48.983Z,102337.76
2019-02-15T03:14:18.945Z,102337.31
2019-02-15T03:16:48.767Z,102337.08
2019-02-15T03:19:18.523Z,102337.75
2019-02-15T03:21:48.771Z,102336.00
2019-02-15T03:24:19.370Z,102340.14
2019-02-15T03:26:49.166Z,102346.46
2019-02-15T03:29:18.389Z,102344.43
2019-02-15T03:31:48.679Z,102345.84
2019-02-15T03:34:18.410Z,102347.05
2019-02-15T03:36:56.456Z,102339.20
2019-02-15T03:39:33.357Z,102343.77
2019-02-15T03:42:03.438Z,102347.77
2019-02-15T03:44:33.091Z,102349.00
2019-02-15T03:47:04.237Z,102341.66
2019-02-15T03:49:34.380Z,102352.19
2019-02-15T03:52:03.490Z,102351.28
2019-02-15T03:54:32.724Z,102347.81
2019-02-15T03:57:02.805Z,102347.38
2019-02-15T03:59:31.907Z,102353.78
2019-02-15T04:02:02.033Z,102348.74
2019-02-15T04:04:32.538Z,102335.98
2019-02-15T04:07:02.806Z,102352.59
2019-02-15T04:09:32.720Z,102352.59
2019-02-15T04:12:02.713Z,102347.39
2019-02-15T04:14:33.440Z,102360.44
2019-02-15T04:17:02.651Z,102348.34
2019-02-15T04:19:32.545Z,102348.34
2019-02-15T04:22:02.783Z,102347.72
2019-02-15T04:24:32.624Z,102348.13
2019-02-15T04:27:02.712Z,102349.48
2019-02-15T04:29:32.604Z,102342.58
2019-02-15T04:32:01.812Z,102322.66
2019-02-15T04:34:31.804Z,102349.31
2019-02-15T04:37:01.961Z,102349.31
2019-02-15T04:39:33.210Z,102348.25
2019-02-15T04:42:03.171Z,102349.68
2019-02-15T04:44:42.356Z,102349.77
2019-02-15T04:47:04.468Z,102345.84
2019-02-15T04:49:34.496Z,102349.27
2019-02-15T04:52:04.362Z,102350.98
2019-02-15T04:54:35.338Z,102351.96
2019-02-15T04:57:05.619Z,102342.84
2019-02-15T04:59:35.616Z,102349.47
2019-02-15T05:02:05.661Z,102354.95
2019-02-15T05:04:35.831Z,102352.45
2019-02-15T05:07:05.116Z,102352.45
2019-02-15T05:09:35.185Z,102352.74
2019-02-15T05:12:05.693Z,102353.11
2019-02-15T05:14:35.671Z,102347.93
2019-02-15T05:17:04.990Z,102355.72
2019-02-15T05:19:34.207Z,102355.72
2019-02-15T05:22:03.383Z,102335.98
2019-02-15T05:24:33.345Z,102335.98
2019-02-15T05:27:03.478Z,102356.38
2019-02-15T05:29:33.593Z,102357.25
2019-02-15T05:32:03.737Z,102338.64
2019-02-15T05:34:33.712Z,102341.83
2019-02-15T05:37:02.964Z,102361.70
2019-02-15T05:39:33.012Z,102361.70
2019-02-15T05:42:02.917Z,102357.25
2019-02-15T05:44:32.905Z,102358.07
2019-02-15T05:47:02.194Z,102348.91
2019-02-15T05:49:32.959Z,102348.91
2019-02-15T05:52:03.887Z,102364.57
2019-02-15T05:54:33.384Z,102364.57
2019-02-15T05:57:03.450Z,102366.77
2019-02-15T05:59:33.621Z,102372.05
2019-02-15T06:02:02.938Z,102350.62
2019-02-15T06:04:32.932Z,102375.53
2019-02-15T06:07:03.468Z,102376.34
2019-02-15T06:09:33.985Z,102376.34
2019-02-15T06:12:03.208Z,102371.11
2019-02-15T06:14:32.591Z,102371.11
2019-02-15T06:17:02.055Z,102357.33
2019-02-15T06:19:31.318Z,102375.73
2019-02-15T06:22:01.038Z,102376.06
2019-02-15T06:24:30.470Z,102345.64
2019-02-15T06:27:01.434Z,102371.41
2019-02-15T06:29:30.650Z,102353.08
2019-02-15T06:32:00.866Z,102373.44
2019-02-15T06:34:30.178Z,102366.98
2019-02-15T06:36:59.666Z,102353.04
2019-02-15T06:39:29.472Z,102353.04
2019-02-15T06:41:58.790Z,102373.41
2019-02-15T06:44:28.195Z,102379.58
2019-02-15T06:46:58.966Z,102377.41
2019-02-15T06:49:29.008Z,102387.68
2019-02-15T06:51:58.669Z,102380.52
2019-02-15T06:54:27.843Z,102390.83
2019-02-15T06:56:57.180Z,102402.12
2019-02-15T06:59:37.911Z,102402.12
2019-02-15T07:02:17.783Z,102399.75
2019-02-15T07:04:48.574Z,102394.02
2019-02-15T07:07:18.716Z,102406.74
2019-02-15T07:09:48.095Z,102410.87
2019-02-15T07:12:17.230Z,102407.97
2019-02-15T07:14:46.430Z,102376.96
2019-02-15T07:17:15.646Z,102407.77
2019-02-15T07:19:45.050Z,102411.32
2019-02-15T07:22:14.522Z,102413.48
2019-02-15T07:24:44.542Z,102413.48
2019-02-15T07:27:14.849Z,102412.83
2019-02-15T07:29:44.860Z,102418.43
2019-02-15T07:32:14.088Z,102414.46
2019-02-15T07:34:43.481Z,102416.37
2019-02-15T07:37:12.909Z,102413.00
2019-02-15T07:39:43.217Z,102414.55
2019-02-15T07:42:12.518Z,102414.77
2019-02-15T07:44:41.894Z,102417.58
2019-02-15T07:47:11.945Z,102414.97
2019-02-15T07:49:41.570Z,102412.44
2019-02-15T07:52:10.936Z,102418.63
2019-02-15T07:54:40.236Z,102415.43
2019-02-15T07:57:09.462Z,102402.14
2019-02-15T07:59:39.105Z,102403.95
2019-02-15T08:02:09.084Z,102405.80
2019-02-15T08:04:38.425Z,102410.99
2019-02-15T08:07:08.788Z,102410.62
2019-02-15T08:09:39.049Z,102407.23
2019-02-15T08:12:09.110Z,102409.08
2019-02-15T08:14:38.339Z,102413.47
2019-02-15T08:17:07.835Z,102404.23
2019-02-15T08:19:37.547Z,102406.17
2019-02-15T08:22:07.728Z,102400.03
2019-02-15T08:24:38.707Z,102400.44
2019-02-15T08:27:08.118Z,102397.23
2019-02-15T08:29:38.886Z,102396.20
2019-02-15T08:32:08.232Z,102394.84
2019-02-15T08:34:37.882Z,102384.40
2019-02-15T08:37:08.006Z,102382.44
2019-02-15T08:39:37.718Z,102386.31
2019-02-15T08:42:07.097Z,102383.95
2019-02-15T08:44:36.735Z,102381.98
2019-02-15T08:47:06.927Z,102382.97
2019-02-15T08:49:36.922Z,102381.29
2019-02-15T08:52:06.548Z,102379.55
2019-02-15T08:54:35.762Z,102382.70
2019-02-15T08:57:05.084Z,102387.21
2019-02-15T08:59:34.327Z,102381.50
2019-02-15T09:02:07.376Z,102383.94
2019-02-15T09:04:49.940Z,102382.98
2019-02-15T09:07:19.616Z,102383.61
2019-02-15T09:09:50.680Z,102382.58
2019-02-15T09:12:20.851Z,102383.34
2019-02-15T09:14:51.036Z,102378.52
2019-02-15T09:17:20.424Z,102378.39
2019-02-15T09:19:50.137Z,102371.70
2019-02-15T09:22:20.154Z,102362.64
2019-02-15T09:24:50.194Z,102363.97
2019-02-15T09:27:25.508Z,102362.72
2019-02-15T09:29:56.621Z,102364.20
2019-02-15T09:32:25.942Z,102364.91
2019-02-15T09:34:55.360Z,102369.83
2019-02-15T09:37:24.743Z,102367.91
2019-02-15T09:39:56.567Z,102356.31
2019-02-15T09:42:26.592Z,102356.98
2019-02-15T09:44:56.672Z,102356.21
2019-02-15T09:47:26.876Z,102353.70
2019-02-15T09:49:56.580Z,102345.60
2019-02-15T09:52:26.506Z,102345.63
2019-02-15T09:54:55.849Z,102352.50
2019-02-15T09:57:26.425Z,102341.16
2019-02-15T09:59:56.710Z,102349.11
2019-02-15T10:02:26.211Z,102342.48
2019-02-15T10:04:56.057Z,102348.67
2019-02-15T10:07:26.197Z,102343.39
2019-02-15T10:09:55.496Z,102344.98
2019-02-15T10:12:24.882Z,102341.76
2019-02-15T10:14:56.322Z,102350.64
2019-02-15T10:17:26.809Z,102349.45
2019-02-15T10:19:56.106Z,102350.55
2019-02-15T10:22:26.582Z,102352.98
2019-02-15T10:24:55.798Z,102356.28
2019-02-15T10:27:25.938Z,102339.77
2019-02-15T10:29:55.198Z,102348.74
2019-02-15T10:32:24.832Z,102344.61
2019-02-15T10:34:56.269Z,102352.25
2019-02-15T10:37:26.276Z,102347.40
2019-02-15T10:39:55.466Z,102342.73
2019-02-15T10:42:24.680Z,102341.75
2019-02-15T10:44:55.258Z,102334.83
2019-02-15T10:47:25.518Z,102327.95
2019-02-15T10:49:56.635Z,102336.10
2019-02-15T10:52:27.304Z,102323.17
2019-02-15T10:54:56.694Z,102314.02
2019-02-15T10:57:26.584Z,102308.47
2019-02-15T10:59:55.905Z,102309.17
2019-02-15T11:02:25.426Z,102306.20
2019-02-15T11:04:55.534Z,102295.80
2019-02-15T11:07:25.060Z,102288.28
2019-02-15T11:09:54.807Z,102290.19
2019-02-15T11:12:24.954Z,102288.82
2019-02-15T11:14:54.289Z,102303.64
2019-02-15T11:17:23.670Z,102302.29
2019-02-15T11:19:53.067Z,102293.67
2019-02-15T11:22:23.252Z,102287.92
2019-02-15T11:24:53.127Z,102272.23
2019-02-15T11:27:24.198Z,102283.47
2019-02-15T11:29:54.900Z,102277.83
2019-02-15T11:32:24.596Z,102268.78
2019-02-15T11:34:54.834Z,102260.17
2019-02-15T11:37:24.509Z,102266.70
2019-02-15T11:39:54.790Z,102260.80
2019-02-15T11:42:24.938Z,102251.34
2019-02-15T11:44:55.492Z,102243.23
2019-02-15T11:47:25.056Z,102242.32
2019-02-15T11:49:55.279Z,102242.88
2019-02-15T11:52:24.500Z,102246.36
2019-02-15T11:54:54.326Z,102239.56
2019-02-15T11:57:23.466Z,102228.70
2019-02-15T11:59:53.623Z,102216.35
2019-02-15T12:02:24.662Z,102214.31
2019-02-15T12:04:54.734Z,102217.11
2019-02-15T12:07:24.222Z,102212.16
2019-02-15T12:09:54.881Z,102206.02
2019-02-15T12:12:24.071Z,102205.19
2019-02-15T12:14:54.198Z,102201.48
2019-02-15T12:17:23.364Z,102196.49
2019-02-15T12:19:52.895Z,102183.49
2019-02-15T12:22:23.000Z,102180.28
2019-02-15T12:24:52.186Z,102176.66
2019-02-15T12:27:22.100Z,102181.12
2019-02-15T12:29:51.412Z,102176.05
2019-02-15T12:32:20.594Z,102170.77
2019-02-15T12:34:50.272Z,102178.64
2019-02-15T12:37:20.404Z,102158.47
2019-02-15T12:39:50.950Z,102156.34
2019-02-15T12:42:21.621Z,102155.56
2019-02-15T12:44:51.394Z,102164.05
2019-02-15T12:47:21.251Z,102161.77
2019-02-15T12:49:51.737Z,102151.19
2019-02-15T12:52:20.870Z,102148.22
2019-02-15T12:54:50.610Z,102149.84
2019-02-15T12:57:21.088Z,102142.13
2019-02-15T12:59:51.302Z,102146.98
2019-02-15T13:02:21.422Z,102143.95
2019-02-15T13:04:51.038Z,102144.48
2019-02-15T13:07:20.978Z,102147.30
2019-02-15T13:09:52.029Z,102144.70
2019-02-15T13:12:21.492Z,102125.91
2019-02-15T13:14:52.520Z,102111.00
2019-02-15T13:17:24.726Z,102105.14
2019-02-15T13:19:52.990Z,102104.53
2019-02-15T13:22:22.325Z,102099.84
2019-02-15T13:24:52.021Z,102104.58
2019-02-15T13:27:21.642Z,102095.97
2019-02-15T13:29:51.550Z,102086.32
2019-02-15T13:32:20.993Z,102089.93
2019-02-15T13:34:51.520Z,102088.60
2019-02-15T13:37:21.029Z,102086.05
2019-02-15T13:39:50.550Z,102077.36
2019-02-15T13:42:19.949Z,102076.03
2019-02-15T13:44:49.270Z,102069.27
2019-02-15T13:47:18.910Z,102080.13
2019-02-15T13:49:48.446Z,102077.27
2019-02-15T13:52:19.214Z,102075.89
2019-02-15T13:54:48.591Z,102073.67
2019-02-15T13:57:18.422Z,102058.22
2019-02-15T13:59:48.162Z,102065.73
2019-02-15T14:02:17.883Z,102066.42
2019-02-15T14:04:47.157Z,102058.13
2019-02-15T14:07:18.265Z,102063.20
2019-02-15T14:09:48.073Z,102048.32
2019-02-15T14:12:18.724Z,102047.56
2019-02-15T14:14:48.420Z,102047.51
2019-02-15T14:17:18.499Z,102038.00
2019-02-15T14:19:48.535Z,102032.98
2019-02-15T14:22:17.905Z,102027.44
2019-02-15T14:24:47.587Z,102022.92
2019-02-15T14:27:20.444Z,102035.41
2019-02-15T14:29:50.373Z,102024.03
2019-02-15T14:32:20.106Z,102026.37
2019-02-15T14:34:49.732Z,102028.58
2019-02-15T14:37:19.699Z,102022.80
2019-02-15T14:39:49.366Z,102022.73
2019-02-15T14:42:18.826Z,102025.11
2019-02-15T14:44:49.070Z,102019.27
2019-02-15T14:47:23.264Z,102017.45
2019-02-15T14:49:52.971Z,102023.94
2019-02-15T14:52:22.033Z,102019.91
2019-02-15T14:54:53.306Z,102024.56
2019-02-15T14:57:23.300Z,102015.44
2019-02-15T14:59:54.387Z,102010.44
2019-02-15T15:02:24.190Z,102009.56
2019-02-15T15:04:53.537Z,102011.62
2019-02-15T15:07:23.167Z,102004.38
2019-02-15T15:09:52.803Z,102004.96
2019-02-15T15:12:22.409Z,102000.44
2019-02-15T15:14:52.328Z,102002.59
2019-02-15T15:17:22.138Z,101984.14
2019-02-15T15:19:53.996Z,101987.35
2019-02-15T15:22:23.372Z,101986.63
2019-02-15T15:24:53.076Z,101987.95
2019-02-15T15:27:22.990Z,101984.75
2019-02-15T15:29:52.606Z,101981.38
2019-02-15T15:32:22.546Z,101982.02
2019-02-15T15:34:52.876Z,101984.89
2019-02-15T15:37:23.472Z,101983.80
2019-02-15T15:39:52.556Z,101976.69
2019-02-15T15:42:22.382Z,101976.09
2019-02-15T15:44:51.885Z,101974.61
2019-02-15T15:47:21.599Z,101973.41
2019-02-15T15:49:51.406Z,101967.45
2019-02-15T15:52:20.938Z,101967.45
2019-02-15T15:54:50.776Z,101968.52
2019-02-15T15:57:20.336Z,101961.77
2019-02-15T15:59:49.956Z,101962.84
2019-02-15T16:02:19.530Z,101957.88
2019-02-15T16:04:48.746Z,101958.72
2019-02-15T16:07:18.199Z,101956.66
2019-02-15T16:09:48.044Z,101954.37
2019-02-15T16:12:17.694Z,101956.77
2019-02-15T16:14:47.772Z,101953.59
2019-02-15T16:17:16.970Z,101953.00
2019-02-15T16:19:49.412Z,101948.98
2019-02-15T16:22:17.419Z,101949.83
2019-02-15T16:24:46.927Z,101948.23
2019-02-15T16:27:17.066Z,101945.69
2019-02-15T16:29:46.548Z,101948.81
2019-02-15T16:32:17.461Z,101943.82
2019-02-15T16:34:50.370Z,101947.08
2019-02-15T16:37:19.679Z,101950.36
2019-02-15T16:39:49.086Z,101940.75
2019-02-15T16:42:18.672Z,101942.44
2019-02-15T16:44:48.229Z,101939.78
2019-02-15T16:47:17.996Z,101952.19
2019-02-15T16:49:48.836Z,101943.66
2019-02-15T16:52:18.596Z,101948.88
2019-02-15T16:54:48.058Z,101945.75
2019-02-15T16:57:18.004Z,101950.58
2019-02-15T16:59:47.630Z,101951.20
2019-02-15T17:02:17.204Z,101951.45
2019-02-15T17:04:47.253Z,101948.48
2019-02-15T17:07:18.329Z,101945.95
2019-02-15T17:09:49.062Z,101949.84
2019-02-15T17:12:18.395Z,101952.69
2019-02-15T17:14:48.017Z,101944.88
2019-02-15T17:17:17.539Z,101946.98
2019-02-15T17:19:47.204Z,101945.80
2019-02-15T17:22:17.015Z,101951.23
2019-02-15T17:24:46.613Z,101945.73
2019-02-15T17:27:17.438Z,101943.34
2019-02-15T17:29:47.060Z,101943.59
2019-02-15T17:32:18.016Z,101946.00
2019-02-15T17:34:48.206Z,101944.58
2019-02-15T17:37:18.054Z,101948.25
2019-02-15T17:39:48.064Z,101948.66
2019-02-15T17:42:19.837Z,101947.50
2019-02-15T17:44:49.707Z,101945.36
2019-02-15T17:47:19.844Z,101947.33
2019-02-15T17:49:49.130Z,101942.20
2019-02-15T17:52:19.427Z,101940.20
2019-02-15T17:54:50.809Z,101939.34
2019-02-15T17:57:23.503Z,101939.14
2019-02-15T17:59:52.698Z,101934.28
2019-02-15T18:02:22.166Z,101936.13
2019-02-15T18:04:51.369Z,101932.73
2019-02-15T18:07:39.382Z,101937.36
2019-02-15T18:10:09.059Z,101930.73
2019-02-15T18:12:38.474Z,101934.13
2019-02-15T18:15:08.654Z,101932.52
2019-02-15T18:17:37.957Z,101928.13
2019-02-15T18:20:09.190Z,101929.92
2019-02-15T18:22:39.163Z,101930.77
2019-02-15T18:25:09.276Z,101929.36
2019-02-15T18:27:38.962Z,101927.81
2019-02-15T18:30:13.137Z,101924.94
2019-02-15T18:32:44.324Z,101926.06
2019-02-15T18:35:13.827Z,101927.73
2019-02-15T18:37:43.403Z,101925.45
2019-02-15T18:40:12.818Z,101927.81
2019-02-15T18:42:42.651Z,101924.33
2019-02-15T18:45:16.727Z,101923.48
2019-02-15T18:47:47.608Z,101927.08
2019-02-15T18:50:17.422Z,101926.51
2019-02-15T18:52:52.043Z,101926.03
2019-02-15T18:55:22.199Z,101921.39
2019-02-15T18:57:51.539Z,101917.46
2019-02-15T19:00:21.774Z,101919.79
2019-02-15T19:02:52.075Z,101918.82
2019-02-15T19:05:22.045Z,101912.67
2019-02-15T19:11:19.890Z,101913.41
2019-02-15T19:13:49.997Z,101915.64
2019-02-15T19:16:20.804Z,101908.84
2019-02-15T19:18:51.450Z,101908.95
2019-02-15T19:21:21.323Z,101900.27
2019-02-15T19:23:51.141Z,101903.39
2019-02-15T19:26:20.675Z,101906.11
2019-02-15T19:28:50.689Z,101894.05
2019-02-15T19:31:20.396Z,101895.08
2019-02-15T19:33:52.794Z,101890.44
2019-02-15T19:36:23.215Z,101892.67
2019-02-15T19:38:53.246Z,101891.45
2019-02-15T19:41:23.384Z,101893.84
2019-02-15T19:43:53.375Z,101891.50
2019-02-15T19:46:23.033Z,101895.89
2019-02-15T19:48:54.047Z,101892.20
2019-02-15T19:51:23.811Z,101893.61
2019-02-15T19:53:53.346Z,101890.70
2019-02-15T19:56:22.897Z,101896.31
2019-02-15T19:58:52.662Z,101891.81
2019-02-15T20:01:22.508Z,101893.86
2019-02-15T20:03:51.792Z,101892.95
2019-02-15T20:06:21.140Z,101892.28
2019-02-15T20:08:51.336Z,101897.76
2019-02-15T20:11:20.793Z,101894.85
2019-02-15T20:13:50.631Z,101892.33
2019-02-15T20:16:20.722Z,101891.99
2019-02-15T20:18:50.518Z,101889.88
2019-02-15T20:21:19.663Z,101891.08
2019-02-15T20:23:49.022Z,101886.39
2019-02-15T20:26:18.470Z,101888.04
2019-02-15T20:28:48.734Z,101876.94
2019-02-15T20:31:18.512Z,101879.80
2019-02-15T20:33:48.806Z,101877.36
2019-02-15T20:36:18.019Z,101883.59
2019-02-15T20:38:48.154Z,101879.03
2019-02-15T20:41:18.185Z,101877.11
2019-02-15T20:43:48.056Z,101876.62
2019-02-15T20:46:18.454Z,101875.07
2019-02-15T20:48:48.393Z,101875.16
2019-02-15T20:51:18.512Z,101878.08
2019-02-15T20:53:47.848Z,101881.12
2019-02-15T20:56:17.486Z,101884.25
2019-02-15T20:58:46.776Z,101888.71
2019-02-15T21:01:16.241Z,101884.14
2019-02-15T21:03:46.060Z,101888.83
2019-02-15T21:06:15.569Z,101888.64
2019-02-15T21:08:45.093Z,101886.28
2019-02-15T21:11:14.617Z,101886.92
2019-02-15T21:13:44.292Z,101886.15
2019-02-15T21:16:14.240Z,101883.91
2019-02-15T21:18:43.795Z,101880.65
2019-02-15T21:21:13.197Z,101887.91
2019-02-15T21:23:43.028Z,101889.86
2019-02-15T21:26:13.540Z,101890.09
2019-02-15T21:28:44.467Z,101891.52
2019-02-15T21:31:14.847Z,101887.69
2019-02-15T21:33:44.219Z,101887.72
2019-02-15T21:36:13.494Z,101884.44
2019-02-15T21:38:43.444Z,101891.52
2019-02-15T21:41:12.862Z,101886.02
2019-02-15T21:43:44.154Z,101886.70
2019-02-15T21:46:14.544Z,101889.41
2019-02-15T21:48:43.777Z,101886.48
2019-02-15T21:51:14.010Z,101890.09
2019-02-15T21:53:44.209Z,101890.42
2019-02-15T21:56:14.363Z,101885.02
2019-02-15T21:58:44.473Z,101882.55
2019-02-15T22:01:15.004Z,101884.97
2019-02-15T22:03:44.365Z,101886.56
2019-02-15T22:06:13.837Z,101884.39
2019-02-15T22:08:43.526Z,101877.36
2019-02-15T22:11:13.352Z,101876.69
2019-02-15T22:13:43.045Z,101875.05
2019-02-15T22:16:12.974Z,101875.57
2019-02-15T22:18:42.778Z,101875.73
2019-02-15T22:21:12.650Z,101869.41
2019-02-15T22:23:42.283Z,101871.09
2019-02-15T22:26:12.006Z,101865.69
2019-02-15T22:28:41.201Z,101866.83
2019-02-15T22:31:11.987Z,101869.20
2019-02-15T22:33:41.488Z,101866.34
2019-02-15T22:36:11.652Z,101869.20
2019-02-15T22:38:42.154Z,101866.38
2019-02-15T22:41:14.732Z,101860.39
2019-02-15T22:43:44.867Z,101853.06
2019-02-15T22:46:14.808Z,101848.94
2019-02-15T22:48:44.799Z,101856.59
2019-02-15T22:51:14.781Z,101853.30
2019-02-15T22:53:45.334Z,101854.06
2019-02-15T22:56:15.210Z,101850.77
2019-02-15T22:58:45.391Z,101853.79
2019-02-15T23:01:16.620Z,101852.03
2019-02-15T23:03:45.820Z,101850.54
2019-02-15T23:06:15.530Z,101852.78
2019-02-15T23:08:45.668Z,101851.13
2019-02-15T23:11:15.496Z,101854.36
2019-02-15T23:13:44.994Z,101852.95
2019-02-15T23:16:15.017Z,101852.32
2019-02-15T23:18:44.494Z,101850.97
2019-02-15T23:21:14.670Z,101843.99
2019-02-15T23:23:43.806Z,101846.84
2019-02-15T23:26:13.125Z,101848.31
2019-02-15T23:28:42.298Z,101843.64
2019-02-15T23:31:11.712Z,101845.75
2019-02-15T23:33:42.698Z,101849.92
2019-02-15T23:36:12.206Z,101845.73
2019-02-15T23:38:42.274Z,101844.95
2019-02-15T23:41:11.571Z,101852.83
2019-02-15T23:43:40.885Z,101851.02
2019-02-15T23:46:10.087Z,101841.27
2019-02-15T23:48:39.367Z,101846.10
2019-02-15T23:51:09.643Z,101844.68
2019-02-15T23:53:39.848Z,101845.20
2019-02-15T23:56:08.918Z,101850.30
2019-02-15T23:58:38.161Z,101851.00
